Airfield :
LOGIN :

Register | Disclaimer

   EN    FR    IT 

 










Legend :    VFR   Marginal VFR   IFR   Intensive IFR   Very Intensive IFR
Visi :
Ceiling :
>= 8 km
>= 3000ft
5 to 8 km
1000 to 3000 ft
1500m to 5 km
500 to 1000 ft
800 to 1500m
200 to 500 ft
< 800m
< 200 ft
Symbols :   Thunderstorms  Fog  Heavy snow  Heavy precipitations  Wind > 20 kt
SIGMETs :     Misc.  Thunderstorms  Icing  Turbulence  Mountain Waves  Volcanic Ashes






- Airport Elevation : 461 ft
- IATA code : WIE


ETOU - Wiesbaden Army

CURRENT METAR :
  • 042156Z AUTO 10003KT 9999 OVC014 03/00 A2929 RMK AO2 SLP925 T00301005 $

EXPIRED METARs :
  • 042141Z AUTO 00000KT 9999 OVC014 03/00 A2929 RMK AO2 SLP926 $
  • 042126Z AUTO 12005KT 9999 OVC016 03/00 A2929 RMK AO2 CIG 014 RWY07 SLP926 $
  • 042056Z AUTO 06003KT 9999 OVC014 03/M01 A2927 RMK AO2 CIG 013 RWY07 SLP919 T00301010 $
  • 042026Z AUTO 05007KT 9999 OVC013 03/M01 A2927 RMK AO2 SLP919 $
  • 041956Z AUTO 09005KT 9999 OVC016 03/00 A2929 RMK AO2 SLP926 T00271004 $

TAF AMD TAF ETOU
Valid from the 04 at 21:00 until the 06 at 03:00 UTC


042107Z 0421/0603 VRB06KT 8000 -SHRA BKN014 QNH2926INS
BECMG 0500/0501 VRB06KT 8000 -SHRA BR OVC010 610207 QNH2929INS
BECMG 0503/0504 VRB06KT 3200 BR OVC005 QNH2935INS
BECMG 0509/0510 VRB06KT 6000 BR OVC010 QNH2947INS
BECMG 0514/0515 VRB06KT 8000 BR OVC015 QNH2950INS TX05/0513Z TN02/0501Z LAST NO AMDS AFT 0421 NEXT 0506



MET'MAP, your aeronautical weather chart ! - Copyright ORBIFLY December 2007 - Disclaimer

ORBIFLY MET'MAP TEAM :

Programming & Development : Alexandra Zaïnal
Concept & original design : Baudouin d'Aumeries
Assistance for programming : Marc-Olivier Méhu
Technical & hardware support : Manuel Goepfert

Contact : metmap@orbifly.com




SOURCES & CREDITS :

   NOAA